sensor_id;sensor_type;location;lat;lon;timestamp;pressure;altitude;pressure_sealevel;temperature;humidity
43711;BME280;29309;42.682;23.372;2022-10-16T00:00:12;95853.16;;;9.92;76.95
43711;BME280;29309;42.682;23.372;2022-10-16T00:02:40;95855.81;;;9.89;77.15
43711;BME280;29309;42.682;23.372;2022-10-16T00:08:44;95868.56;;;9.83;77.48
43711;BME280;29309;42.682;23.372;2022-10-16T00:14:49;95869.63;;;9.78;77.51
43711;BME280;29309;42.682;23.372;2022-10-16T00:20:41;95871.19;;;9.69;77.79
43711;BME280;29309;42.682;23.372;2022-10-16T00:23:30;95870.31;;;9.67;77.92
43711;BME280;29309;42.682;23.372;2022-10-16T00:26:19;95874.84;;;9.62;77.85
43711;BME280;29309;42.682;23.372;2022-10-16T00:28:52;95868.47;;;9.60;78.26
43711;BME280;29309;42.682;23.372;2022-10-16T00:31:20;95873.16;;;9.57;78.43
43711;BME280;29309;42.682;23.372;2022-10-16T00:33:53;95879.28;;;9.56;78.30
43711;BME280;29309;42.682;23.372;2022-10-16T00:36:21;95886.03;;;9.53;78.56
43711;BME280;29309;42.682;23.372;2022-10-16T00:38:50;95891.31;;;9.49;78.15
43711;BME280;29309;42.682;23.372;2022-10-16T00:41:18;95886.63;;;9.51;78.40
43711;BME280;29309;42.682;23.372;2022-10-16T00:43:49;95881.56;;;9.48;78.21
43711;BME280;29309;42.682;23.372;2022-10-16T00:46:37;95877.78;;;9.43;78.03
43711;BME280;29309;42.682;23.372;2022-10-16T00:49:08;95874.63;;;9.37;78.55
43711;BME280;29309;42.682;23.372;2022-10-16T00:51:54;95874.69;;;9.27;78.71
43711;BME280;29309;42.682;23.372;2022-10-16T00:54:26;95879.50;;;9.27;78.58
43711;BME280;29309;42.682;23.372;2022-10-16T00:56:53;95871.81;;;9.25;78.90
43711;BME280;29309;42.682;23.372;2022-10-16T00:59:29;95871.81;;;9.25;78.54
43711;BME280;29309;42.682;23.372;2022-10-16T01:01:57;95880.13;;;9.25;78.41
43711;BME280;29309;42.682;23.372;2022-10-16T01:04:24;95878.38;;;9.20;78.83
43711;BME280;29309;42.682;23.372;2022-10-16T01:10:07;95898.13;;;9.15;79.18
43711;BME280;29309;42.682;23.372;2022-10-16T01:15:55;95892.75;;;9.07;79.96
43711;BME280;29309;42.682;23.372;2022-10-16T01:18:39;95884.03;;;9.01;79.99
43711;BME280;29309;42.682;23.372;2022-10-16T01:21:29;95878.69;;;8.94;80.21
43711;BME280;29309;42.682;23.372;2022-10-16T01:24:08;95884.81;;;8.92;80.53
43711;BME280;29309;42.682;23.372;2022-10-16T01:29:56;95875.69;;;8.80;80.24
43711;BME280;29309;42.682;23.372;2022-10-16T01:32:36;95869.63;;;8.72;80.71
43711;BME280;29309;42.682;23.372;2022-10-16T01:35:28;95875.94;;;8.63;81.28
43711;BME280;29309;42.682;23.372;2022-10-16T01:38:16;95874.47;;;8.62;81.14
43711;BME280;29309;42.682;23.372;2022-10-16T01:40:52;95872.31;;;8.60;81.58
43711;BME280;29309;42.682;23.372;2022-10-16T01:43:27;95874.81;;;8.56;81.03
43711;BME280;29309;42.682;23.372;2022-10-16T01:45:59;95874.53;;;8.52;81.47
43711;BME280;29309;42.682;23.372;2022-10-16T01:48:26;95880.06;;;8.52;81.88
43711;BME280;29309;42.682;23.372;2022-10-16T01:51:00;95880.19;;;8.54;81.73
43711;BME280;29309;42.682;23.372;2022-10-16T01:53:27;95890.53;;;8.54;81.90
43711;BME280;29309;42.682;23.372;2022-10-16T01:55:54;95892.31;;;8.49;81.87
43711;BME280;29309;42.682;23.372;2022-10-16T01:58:22;95892.03;;;8.45;81.37
43711;BME280;29309;42.682;23.372;2022-10-16T02:00:52;95896.56;;;8.40;81.74
43711;BME280;29309;42.682;23.372;2022-10-16T02:03:25;95895.69;;;8.38;81.99
43711;BME280;29309;42.682;23.372;2022-10-16T02:05:56;95898.19;;;8.34;82.31
43711;BME280;29309;42.682;23.372;2022-10-16T02:08:28;95895.97;;;8.32;82.68
43711;BME280;29309;42.682;23.372;2022-10-16T02:11:03;95909.81;;;8.32;82.49
43711;BME280;29309;42.682;23.372;2022-10-16T02:13:52;95903.13;;;8.26;82.64
43711;BME280;29309;42.682;23.372;2022-10-16T02:16:33;95909.38;;;8.26;82.51
43711;BME280;29309;42.682;23.372;2022-10-16T02:19:19;95912.72;;;8.25;82.15
43711;BME280;29309;42.682;23.372;2022-10-16T02:22:06;95921.47;;;8.21;82.58
43711;BME280;29309;42.682;23.372;2022-10-16T02:24:54;95919.75;;;8.16;82.75
43711;BME280;29309;42.682;23.372;2022-10-16T02:27:52;95918.88;;;8.14;82.16
43711;BME280;29309;42.682;23.372;2022-10-16T02:30:33;95922.94;;;8.13;82.35
43711;BME280;29309;42.682;23.372;2022-10-16T02:33:10;95926.88;;;8.10;82.37
43711;BME280;29309;42.682;23.372;2022-10-16T02:35:41;95926.00;;;8.07;82.76
43711;BME280;29309;42.682;23.372;2022-10-16T02:38:11;95923.09;;;8.05;82.64
43711;BME280;29309;42.682;23.372;2022-10-16T02:40:47;95929.81;;;8.02;82.87
43711;BME280;29309;42.682;23.372;2022-10-16T02:43:24;95930.97;;;7.99;82.34
43711;BME280;29309;42.682;23.372;2022-10-16T02:45:50;95925.16;;;7.95;82.86
43711;BME280;29309;42.682;23.372;2022-10-16T02:48:16;95931.41;;;7.96;82.52
43711;BME280;29309;42.682;23.372;2022-10-16T02:50:41;95930.53;;;7.93;82.46
43711;BME280;29309;42.682;23.372;2022-10-16T02:53:07;95936.50;;;7.89;82.35
43711;BME280;29309;42.682;23.372;2022-10-16T02:55:32;95931.28;;;7.84;82.73
43711;BME280;29309;42.682;23.372;2022-10-16T02:57:58;95939.41;;;7.82;82.18
43711;BME280;29309;42.682;23.372;2022-10-16T03:00:23;95934.31;;;7.78;82.42
43711;BME280;29309;42.682;23.372;2022-10-16T03:02:49;95943.34;;;7.79;82.50
43711;BME280;29309;42.682;23.372;2022-10-16T03:05:14;95943.50;;;7.81;82.26
43711;BME280;29309;42.682;23.372;2022-10-16T03:07:40;95941.59;;;7.83;82.49
43711;BME280;29309;42.682;23.372;2022-10-16T03:10:06;95940.75;;;7.81;82.32
43711;BME280;29309;42.682;23.372;2022-10-16T03:12:32;95937.38;;;7.82;82.26
43711;BME280;29309;42.682;23.372;2022-10-16T03:15:11;95942.03;;;7.80;81.89
43711;BME280;29309;42.682;23.372;2022-10-16T03:17:37;95947.28;;;7.76;81.58
43711;BME280;29309;42.682;23.372;2022-10-16T03:20:03;95946.97;;;7.72;81.90
43711;BME280;29309;42.682;23.372;2022-10-16T03:22:28;95952.50;;;7.72;81.66
43711;BME280;29309;42.682;23.372;2022-10-16T03:24:54;95952.22;;;7.68;81.53
43711;BME280;29309;42.682;23.372;2022-10-16T03:27:19;95948.88;;;7.69;81.97
43711;BME280;29309;42.682;23.372;2022-10-16T03:29:45;95956.44;;;7.69;82.31
43711;BME280;29309;42.682;23.372;2022-10-16T03:32:10;95946.38;;;7.64;81.87
43711;BME280;29309;42.682;23.372;2022-10-16T03:34:36;95952.22;;;7.58;81.72
43711;BME280;29309;42.682;23.372;2022-10-16T03:37:01;95949.88;;;7.55;82.19
43711;BME280;29309;42.682;23.372;2022-10-16T03:39:26;95955.41;;;7.55;82.13
43711;BME280;29309;42.682;23.372;2022-10-16T03:41:52;95960.34;;;7.56;82.35
43711;BME280;29309;42.682;23.372;2022-10-16T03:44:17;95950.19;;;7.59;82.17
43711;BME280;29309;42.682;23.372;2022-10-16T03:46:43;95950.91;;;7.59;82.38
43711;BME280;29309;42.682;23.372;2022-10-16T03:49:08;95950.47;;;7.63;82.24
43711;BME280;29309;42.682;23.372;2022-10-16T03:51:34;95947.72;;;7.63;82.39
43711;BME280;29309;42.682;23.372;2022-10-16T03:53:59;95948.56;;;7.65;82.25
43711;BME280;29309;42.682;23.372;2022-10-16T03:56:25;95940.84;;;7.64;82.24
43711;BME280;29309;42.682;23.372;2022-10-16T03:58:50;95945.22;;;7.57;82.22
43711;BME280;29309;42.682;23.372;2022-10-16T04:01:15;95943.31;;;7.50;82.96
43711;BME280;29309;42.682;23.372;2022-10-16T04:03:41;95948.13;;;7.50;82.56
43711;BME280;29309;42.682;23.372;2022-10-16T04:06:06;95940.13;;;7.44;82.78
43711;BME280;29309;42.682;23.372;2022-10-16T04:08:32;95953.03;;;7.41;82.67
43711;BME280;29309;42.682;23.372;2022-10-16T04:11:00;95944.31;;;7.35;82.93
43711;BME280;29309;42.682;23.372;2022-10-16T04:13:26;95948.97;;;7.33;82.50
43711;BME280;29309;42.682;23.372;2022-10-16T04:15:51;95956.41;;;7.30;83.00
43711;BME280;29309;42.682;23.372;2022-10-16T04:18:17;95950.41;;;7.24;82.64
43711;BME280;29309;42.682;23.372;2022-10-16T04:20:42;95946.22;;;7.23;83.09
43711;BME280;29309;42.682;23.372;2022-10-16T04:23:08;95952.88;;;7.20;83.20
43711;BME280;29309;42.682;23.372;2022-10-16T04:25:33;95958.25;;;7.18;82.91
43711;BME280;29309;42.682;23.372;2022-10-16T04:27:58;95956.78;;;7.17;83.00
43711;BME280;29309;42.682;23.372;2022-10-16T04:30:25;95954.03;;;7.17;82.80
43711;BME280;29309;42.682;23.372;2022-10-16T04:32:51;95960.72;;;7.14;82.80
43711;BME280;29309;42.682;23.372;2022-10-16T04:35:18;95962.59;;;7.12;82.84
43711;BME280;29309;42.682;23.372;2022-10-16T04:37:44;95967.38;;;7.11;83.37
43711;BME280;29309;42.682;23.372;2022-10-16T04:40:10;95966.22;;;7.14;82.80
43711;BME280;29309;42.682;23.372;2022-10-16T04:42:35;95973.78;;;7.14;83.18
43711;BME280;29309;42.682;23.372;2022-10-16T04:45:01;95966.66;;;7.11;83.12
43711;BME280;29309;42.682;23.372;2022-10-16T04:47:26;95974.22;;;7.10;82.77
43711;BME280;29309;42.682;23.372;2022-10-16T04:49:51;95979.72;;;7.10;83.04
43711;BME280;29309;42.682;23.372;2022-10-16T04:52:17;95980.16;;;7.07;83.01
43711;BME280;29309;42.682;23.372;2022-10-16T04:54:44;95979.41;;;7.06;83.14
43711;BME280;29309;42.682;23.372;2022-10-16T04:57:10;95990.63;;;7.08;83.25
43711;BME280;29309;42.682;23.372;2022-10-16T04:59:36;95984.50;;;7.10;83.38
43711;BME280;29309;42.682;23.372;2022-10-16T05:02:02;95994.81;;;7.09;83.51
43711;BME280;29309;42.682;23.372;2022-10-16T05:04:28;95992.25;;;7.11;83.16
43711;BME280;29309;42.682;23.372;2022-10-16T05:06:53;95997.47;;;7.17;83.50
43711;BME280;29309;42.682;23.372;2022-10-16T05:09:19;96003.03;;;7.26;83.49
43711;BME280;29309;42.682;23.372;2022-10-16T05:11:44;96002.78;;;7.41;83.69
43711;BME280;29309;42.682;23.372;2022-10-16T05:14:10;95999.19;;;7.58;83.49
43711;BME280;29309;42.682;23.372;2022-10-16T05:16:35;96003.16;;;7.84;83.38
43711;BME280;29309;42.682;23.372;2022-10-16T05:19:00;96004.75;;;8.06;82.66
43711;BME280;29309;42.682;23.372;2022-10-16T05:21:26;96002.84;;;8.28;82.22
43711;BME280;29309;42.682;23.372;2022-10-16T05:23:53;96016.97;;;8.51;81.13
43711;BME280;29309;42.682;23.372;2022-10-16T05:26:18;96018.22;;;8.79;80.47
43711;BME280;29309;42.682;23.372;2022-10-16T05:28:43;96014.63;;;9.07;79.49
43711;BME280;29309;42.682;23.372;2022-10-16T05:31:09;96009.81;;;9.38;78.34
43711;BME280;29309;42.682;23.372;2022-10-16T05:33:35;96007.88;;;9.72;76.88
43711;BME280;29309;42.682;23.372;2022-10-16T05:36:05;96011.19;;;10.01;75.85
43711;BME280;29309;42.682;23.372;2022-10-16T05:38:32;96009.63;;;10.31;74.25
43711;BME280;29309;42.682;23.372;2022-10-16T05:40:57;96007.94;;;10.59;72.83
43711;BME280;29309;42.682;23.372;2022-10-16T05:43:23;96012.34;;;10.85;71.45
43711;BME280;29309;42.682;23.372;2022-10-16T05:46:00;96015.28;;;11.10;69.71
43711;BME280;29309;42.682;23.372;2022-10-16T05:48:27;96019.50;;;11.34;68.90
43711;BME280;29309;42.682;23.372;2022-10-16T05:51:03;96031.91;;;11.68;67.89
43711;BME280;29309;42.682;23.372;2022-10-16T05:53:31;96026.84;;;12.00;66.80
43711;BME280;29309;42.682;23.372;2022-10-16T05:55:58;96033.50;;;12.31;65.73
43711;BME280;29309;42.682;23.372;2022-10-16T05:58:42;96030.69;;;12.68;63.99
43711;BME280;29309;42.682;23.372;2022-10-16T06:01:15;96033.56;;;12.96;63.07
43711;BME280;29309;42.682;23.372;2022-10-16T06:03:41;96042.97;;;13.27;61.11
43711;BME280;29309;42.682;23.372;2022-10-16T06:06:17;96049.09;;;13.38;60.18
43711;BME280;29309;42.682;23.372;2022-10-16T06:08:44;96053.66;;;13.58;59.94
43711;BME280;29309;42.682;23.372;2022-10-16T06:11:13;96054.38;;;13.86;58.98
43711;BME280;29309;42.682;23.372;2022-10-16T06:13:39;96055.78;;;14.14;57.47
43711;BME280;29309;42.682;23.372;2022-10-16T06:16:07;96058.38;;;14.38;56.60
43711;BME280;29309;42.682;23.372;2022-10-16T06:18:32;96056.53;;;14.58;55.75
43711;BME280;29309;42.682;23.372;2022-10-16T06:20:58;96064.84;;;14.85;55.38
43711;BME280;29309;42.682;23.372;2022-10-16T06:23:24;96063.38;;;15.13;54.71
43711;BME280;29309;42.682;23.372;2022-10-16T06:25:50;96060.34;;;15.39;54.03
43711;BME280;29309;42.682;23.372;2022-10-16T06:28:16;96068.75;;;15.54;52.64
43711;BME280;29309;42.682;23.372;2022-10-16T06:30:42;96066.41;;;15.80;52.49
43711;BME280;29309;42.682;23.372;2022-10-16T06:33:12;96068.63;;;15.99;52.22
43711;BME280;29309;42.682;23.372;2022-10-16T06:35:38;96063.16;;;16.19;50.20
43711;BME280;29309;42.682;23.372;2022-10-16T06:38:03;96066.38;;;16.29;49.05
43711;BME280;29309;42.682;23.372;2022-10-16T06:40:29;96071.63;;;16.37;48.84
43711;BME280;29309;42.682;23.372;2022-10-16T06:42:55;96074.41;;;16.37;48.73
43711;BME280;29309;42.682;23.372;2022-10-16T06:45:20;96074.03;;;16.44;47.95
43711;BME280;29309;42.682;23.372;2022-10-16T06:47:46;96072.59;;;16.43;48.49
43711;BME280;29309;42.682;23.372;2022-10-16T06:50:11;96080.38;;;16.45;48.21
43711;BME280;29309;42.682;23.372;2022-10-16T06:52:37;96083.41;;;16.51;48.74
43711;BME280;29309;42.682;23.372;2022-10-16T06:55:09;96088.59;;;16.74;48.42
43711;BME280;29309;42.682;23.372;2022-10-16T06:57:35;96089.78;;;16.69;47.47
43711;BME280;29309;42.682;23.372;2022-10-16T07:00:03;96093.09;;;16.81;47.41
43711;BME280;29309;42.682;23.372;2022-10-16T07:02:38;96096.75;;;16.68;47.47
43711;BME280;29309;42.682;23.372;2022-10-16T07:05:04;96096.06;;;16.67;47.83
43711;BME280;29309;42.682;23.372;2022-10-16T07:07:29;96095.19;;;16.98;48.11
43711;BME280;29309;42.682;23.372;2022-10-16T07:09:55;96098.50;;;17.30;46.71
43711;BME280;29309;42.682;23.372;2022-10-16T07:12:21;96096.38;;;17.66;45.61
43711;BME280;29309;42.682;23.372;2022-10-16T07:14:54;96089.63;;;17.73;45.37
43711;BME280;29309;42.682;23.372;2022-10-16T07:17:21;96107.00;;;18.07;44.82
43711;BME280;29309;42.682;23.372;2022-10-16T07:22:23;96104.53;;;18.56;43.28
43711;BME280;29309;42.682;23.372;2022-10-16T07:24:58;96108.47;;;18.69;43.26
43711;BME280;29309;42.682;23.372;2022-10-16T07:27:24;96105.41;;;18.83;42.31
43711;BME280;29309;42.682;23.372;2022-10-16T07:29:50;96099.72;;;19.02;42.86
43711;BME280;29309;42.682;23.372;2022-10-16T07:32:15;96104.78;;;19.30;42.88
43711;BME280;29309;42.682;23.372;2022-10-16T07:34:42;96106.41;;;19.58;42.08
43711;BME280;29309;42.682;23.372;2022-10-16T07:37:11;96104.88;;;19.79;42.69
43711;BME280;29309;42.682;23.372;2022-10-16T07:40:00;96105.63;;;20.05;40.71
43711;BME280;29309;42.682;23.372;2022-10-16T07:42:32;96101.44;;;20.06;40.34
43711;BME280;29309;42.682;23.372;2022-10-16T07:45:02;96104.81;;;20.27;40.14
43711;BME280;29309;42.682;23.372;2022-10-16T07:47:38;96107.16;;;20.34;41.02
43711;BME280;29309;42.682;23.372;2022-10-16T07:50:04;96099.16;;;20.27;39.23
43711;BME280;29309;42.682;23.372;2022-10-16T07:52:38;96111.03;;;19.97;39.97
43711;BME280;29309;42.682;23.372;2022-10-16T07:55:04;96113.78;;;19.70;40.62
43711;BME280;29309;42.682;23.372;2022-10-16T07:57:30;96108.31;;;19.52;41.63
43711;BME280;29309;42.682;23.372;2022-10-16T07:59:56;96115.09;;;19.67;42.16
43711;BME280;29309;42.682;23.372;2022-10-16T08:02:23;96105.47;;;19.99;42.57
43711;BME280;29309;42.682;23.372;2022-10-16T08:04:49;96103.72;;;20.38;39.58
43711;BME280;29309;42.682;23.372;2022-10-16T08:07:15;96109.94;;;20.08;39.78
43711;BME280;29309;42.682;23.372;2022-10-16T08:09:43;96113.25;;;20.01;41.05
43711;BME280;29309;42.682;23.372;2022-10-16T08:12:13;96120.19;;;19.96;41.05
43711;BME280;29309;42.682;23.372;2022-10-16T08:14:43;96112.94;;;19.89;40.28
43711;BME280;29309;42.682;23.372;2022-10-16T08:17:13;96118.50;;;19.87;41.29
43711;BME280;29309;42.682;23.372;2022-10-16T08:19:39;96105.72;;;20.07;40.64
43711;BME280;29309;42.682;23.372;2022-10-16T08:22:05;96101.00;;;20.16;40.49
43711;BME280;29309;42.682;23.372;2022-10-16T08:24:31;96104.97;;;19.81;40.60
43711;BME280;29309;42.682;23.372;2022-10-16T08:26:57;96099.72;;;19.72;39.97
43711;BME280;29309;42.682;23.372;2022-10-16T08:32:05;96103.75;;;19.64;40.25
43711;BME280;29309;42.682;23.372;2022-10-16T08:34:34;96096.31;;;19.75;40.16
43711;BME280;29309;42.682;23.372;2022-10-16T08:37:18;96091.34;;;19.50;40.67
43711;BME280;29309;42.682;23.372;2022-10-16T08:39:47;96099.28;;;19.55;40.38
43711;BME280;29309;42.682;23.372;2022-10-16T08:42:27;96089.19;;;19.72;39.69
43711;BME280;29309;42.682;23.372;2022-10-16T08:45:19;96079.59;;;19.81;39.00
43711;BME280;29309;42.682;23.372;2022-10-16T08:47:54;96098.50;;;20.02;40.07
43711;BME280;29309;42.682;23.372;2022-10-16T08:50:27;96098.13;;;20.14;38.07
43711;BME280;29309;42.682;23.372;2022-10-16T08:53:04;96098.44;;;20.00;36.85
43711;BME280;29309;42.682;23.372;2022-10-16T08:55:45;96093.31;;;19.93;37.43
43711;BME280;29309;42.682;23.372;2022-10-16T08:58:23;96099.22;;;20.03;38.01
43711;BME280;29309;42.682;23.372;2022-10-16T09:00:57;96107.34;;;20.17;37.73
43711;BME280;29309;42.682;23.372;2022-10-16T09:06:16;96103.50;;;19.80;36.37
43711;BME280;29309;42.682;23.372;2022-10-16T09:12:02;96097.97;;;19.37;37.30
43711;BME280;29309;42.682;23.372;2022-10-16T09:20:34;96094.34;;;19.56;37.67
43711;BME280;29309;42.682;23.372;2022-10-16T09:23:16;96094.34;;;19.56;37.70
43711;BME280;29309;42.682;23.372;2022-10-16T09:25:45;96088.38;;;19.68;37.98
43711;BME280;29309;42.682;23.372;2022-10-16T09:28:22;96098.00;;;19.84;36.67
43711;BME280;29309;42.682;23.372;2022-10-16T09:30:57;96089.59;;;19.86;36.33
43711;BME280;29309;42.682;23.372;2022-10-16T09:33:32;96091.41;;;19.76;36.50
43711;BME280;29309;42.682;23.372;2022-10-16T09:36:03;96086.06;;;19.86;38.18
43711;BME280;29309;42.682;23.372;2022-10-16T09:38:37;96091.16;;;19.91;37.11
43711;BME280;29309;42.682;23.372;2022-10-16T09:41:22;96088.59;;;20.01;36.32
43711;BME280;29309;42.682;23.372;2022-10-16T09:46:27;96091.56;;;19.34;36.79
43711;BME280;29309;42.682;23.372;2022-10-16T09:51:44;96077.53;;;19.84;36.53
43711;BME280;29309;42.682;23.372;2022-10-16T09:56:37;96080.28;;;20.05;36.24
43711;BME280;29309;42.682;23.372;2022-10-16T09:59:12;96062.41;;;19.97;36.18
43711;BME280;29309;42.682;23.372;2022-10-16T10:01:43;96075.88;;;20.00;36.77
43711;BME280;29309;42.682;23.372;2022-10-16T10:04:11;96072.25;;;20.22;37.60
43711;BME280;29309;42.682;23.372;2022-10-16T10:07:20;96074.38;;;20.47;37.06
43711;BME280;29309;42.682;23.372;2022-10-16T10:09:45;96059.84;;;20.31;34.08
43711;BME280;29309;42.682;23.372;2022-10-16T10:12:37;96063.25;;;20.01;34.32
43711;BME280;29309;42.682;23.372;2022-10-16T10:15:13;96059.03;;;19.77;35.66
43711;BME280;29309;42.682;23.372;2022-10-16T10:17:48;96062.56;;;19.77;36.16
43711;BME280;29309;42.682;23.372;2022-10-16T10:20:33;96055.13;;;19.40;37.33
43711;BME280;29309;42.682;23.372;2022-10-16T10:23:00;96060.13;;;19.65;37.76
43711;BME280;29309;42.682;23.372;2022-10-16T10:28:21;96060.59;;;20.07;37.49
43711;BME280;29309;42.682;23.372;2022-10-16T10:33:46;96047.53;;;20.20;36.28
43711;BME280;29309;42.682;23.372;2022-10-16T10:36:34;96047.22;;;20.08;35.97
43711;BME280;29309;42.682;23.372;2022-10-16T10:39:36;96048.25;;;20.21;34.84
43711;BME280;29309;42.682;23.372;2022-10-16T10:47:59;96035.66;;;19.98;35.63
43711;BME280;29309;42.682;23.372;2022-10-16T10:50:52;96031.31;;;19.93;36.05
43711;BME280;29309;42.682;23.372;2022-10-16T11:03:08;96019.81;;;19.35;37.03
43711;BME280;29309;42.682;23.372;2022-10-16T11:05:44;96019.19;;;19.39;37.93
43711;BME280;29309;42.682;23.372;2022-10-16T11:08:28;96019.44;;;19.47;35.75
43711;BME280;29309;42.682;23.372;2022-10-16T11:11:02;96013.72;;;19.21;36.70
43711;BME280;29309;42.682;23.372;2022-10-16T11:13:36;96010.63;;;19.35;37.33
43711;BME280;29309;42.682;23.372;2022-10-16T11:16:16;96010.69;;;19.37;37.28
43711;BME280;29309;42.682;23.372;2022-10-16T11:21:36;96004.16;;;19.80;35.38
43711;BME280;29309;42.682;23.372;2022-10-16T11:24:06;96003.19;;;19.69;34.54
43711;BME280;29309;42.682;23.372;2022-10-16T11:26:41;96003.44;;;19.79;36.23
43711;BME280;29309;42.682;23.372;2022-10-16T11:29:27;95999.75;;;20.26;34.99
43711;BME280;29309;42.682;23.372;2022-10-16T11:35:02;95996.25;;;20.83;33.07
43711;BME280;29309;42.682;23.372;2022-10-16T11:37:41;95990.16;;;20.95;34.32
43711;BME280;29309;42.682;23.372;2022-10-16T11:40:31;95998.91;;;21.39;33.52
43711;BME280;29309;42.682;23.372;2022-10-16T11:43:06;96001.75;;;21.75;32.81
43711;BME280;29309;42.682;23.372;2022-10-16T11:45:54;95992.44;;;22.02;30.42
43711;BME280;29309;42.682;23.372;2022-10-16T11:48:27;95997.53;;;22.12;30.96
43711;BME280;29309;42.682;23.372;2022-10-16T11:56:22;95989.59;;;23.34;29.85
43711;BME280;29309;42.682;23.372;2022-10-16T11:59:01;95999.88;;;23.59;29.02
43711;BME280;29309;42.682;23.372;2022-10-16T12:02:25;96002.69;;;23.59;28.79
43711;BME280;29309;42.682;23.372;2022-10-16T12:04:51;95997.28;;;23.81;28.79
43711;BME280;29309;42.682;23.372;2022-10-16T12:07:37;95994.38;;;24.39;28.16
43711;BME280;29309;42.682;23.372;2022-10-16T12:10:21;95997.69;;;24.92;27.03
43711;BME280;29309;42.682;23.372;2022-10-16T12:12:47;95993.75;;;24.45;26.53
43711;BME280;29309;42.682;23.372;2022-10-16T12:15:26;95996.06;;;24.71;26.08
43711;BME280;29309;42.682;23.372;2022-10-16T12:17:53;95994.53;;;24.58;26.40
43711;BME280;29309;42.682;23.372;2022-10-16T12:22:55;95997.75;;;22.64;30.59
43711;BME280;29309;42.682;23.372;2022-10-16T12:25:28;95992.25;;;21.92;30.87
43711;BME280;29309;42.682;23.372;2022-10-16T12:30:26;95985.84;;;20.62;34.43
43711;BME280;29309;42.682;23.372;2022-10-16T12:33:04;95986.50;;;20.31;34.59
43711;BME280;29309;42.682;23.372;2022-10-16T12:35:33;96003.53;;;20.09;35.15
43711;BME280;29309;42.682;23.372;2022-10-16T12:38:26;95993.19;;;19.64;34.98
43711;BME280;29309;42.682;23.372;2022-10-16T12:40:59;96000.94;;;19.16;35.59
43711;BME280;29309;42.682;23.372;2022-10-16T12:48:44;95997.59;;;18.33;37.85
43711;BME280;29309;42.682;23.372;2022-10-16T12:54:02;96001.16;;;18.13;39.00
43711;BME280;29309;42.682;23.372;2022-10-16T12:59:57;96006.44;;;17.84;37.82
43711;BME280;29309;42.682;23.372;2022-10-16T13:10:38;96008.56;;;17.83;38.95
43711;BME280;29309;42.682;23.372;2022-10-16T13:13:14;96002.78;;;17.79;38.05
43711;BME280;29309;42.682;23.372;2022-10-16T13:24:16;96007.91;;;17.85;38.43
43711;BME280;29309;42.682;23.372;2022-10-16T13:26:57;96007.75;;;17.81;38.50
43711;BME280;29309;42.682;23.372;2022-10-16T13:29:31;96003.63;;;17.84;38.69
43711;BME280;29309;42.682;23.372;2022-10-16T13:31:58;96006.09;;;17.74;38.78
43711;BME280;29309;42.682;23.372;2022-10-16T13:34:26;96004.34;;;17.84;38.00
43711;BME280;29309;42.682;23.372;2022-10-16T13:36:52;96007.03;;;17.80;38.60
43711;BME280;29309;42.682;23.372;2022-10-16T13:39:28;96013.94;;;17.77;38.64
43711;BME280;29309;42.682;23.372;2022-10-16T13:42:07;96014.38;;;17.89;38.34
43711;BME280;29309;42.682;23.372;2022-10-16T13:44:47;96011.00;;;17.73;38.66
43711;BME280;29309;42.682;23.372;2022-10-16T13:47:25;96015.88;;;17.73;37.84
43711;BME280;29309;42.682;23.372;2022-10-16T13:50:25;96009.00;;;17.76;37.54
43711;BME280;29309;42.682;23.372;2022-10-16T13:52:50;96006.09;;;17.74;37.46
43711;BME280;29309;42.682;23.372;2022-10-16T13:55:17;96020.22;;;17.76;38.64
43711;BME280;29309;42.682;23.372;2022-10-16T13:57:43;96014.19;;;17.83;39.04
43711;BME280;29309;42.682;23.372;2022-10-16T14:00:24;96019.91;;;17.87;38.57
43711;BME280;29309;42.682;23.372;2022-10-16T14:02:58;96022.09;;;17.89;38.31
43711;BME280;29309;42.682;23.372;2022-10-16T14:05:25;96020.06;;;17.91;37.17
43711;BME280;29309;42.682;23.372;2022-10-16T14:07:51;96021.22;;;17.84;37.06
43711;BME280;29309;42.682;23.372;2022-10-16T14:10:23;96024.09;;;17.86;36.57
43711;BME280;29309;42.682;23.372;2022-10-16T14:13:02;96030.56;;;17.91;35.84
43711;BME280;29309;42.682;23.372;2022-10-16T14:15:30;96033.16;;;17.85;36.16
43711;BME280;29309;42.682;23.372;2022-10-16T14:17:57;96034.53;;;17.84;35.89
43711;BME280;29309;42.682;23.372;2022-10-16T14:20:29;96038.22;;;17.68;35.83
43711;BME280;29309;42.682;23.372;2022-10-16T14:23:19;96035.31;;;17.47;36.26
43711;BME280;29309;42.682;23.372;2022-10-16T14:25:45;96044.13;;;17.57;36.50
43711;BME280;29309;42.682;23.372;2022-10-16T14:28:21;96044.41;;;17.47;36.03
43711;BME280;29309;42.682;23.372;2022-10-16T14:30:55;96041.56;;;17.45;36.38
43711;BME280;29309;42.682;23.372;2022-10-16T14:33:30;96051.50;;;17.48;36.07
43711;BME280;29309;42.682;23.372;2022-10-16T14:38:29;96043.75;;;17.29;37.23
43711;BME280;29309;42.682;23.372;2022-10-16T14:40:57;96045.84;;;17.29;36.85
43711;BME280;29309;42.682;23.372;2022-10-16T14:43:34;96048.81;;;17.15;36.30
43711;BME280;29309;42.682;23.372;2022-10-16T14:46:02;96056.94;;;17.07;36.46
43711;BME280;29309;42.682;23.372;2022-10-16T14:48:29;96057.91;;;16.96;36.76
43711;BME280;29309;42.682;23.372;2022-10-16T14:50:55;96053.81;;;16.99;37.24
43711;BME280;29309;42.682;23.372;2022-10-16T14:53:21;96053.28;;;16.85;39.64
43711;BME280;29309;42.682;23.372;2022-10-16T14:55:46;96062.63;;;16.91;38.04
43711;BME280;29309;42.682;23.372;2022-10-16T14:58:19;96059.50;;;16.83;38.13
43711;BME280;29309;42.682;23.372;2022-10-16T15:00:45;96067.03;;;16.79;37.81
43711;BME280;29309;42.682;23.372;2022-10-16T15:03:11;96066.91;;;16.75;38.02
43711;BME280;29309;42.682;23.372;2022-10-16T15:05:37;96063.59;;;16.80;37.80
43711;BME280;29309;42.682;23.372;2022-10-16T15:08:04;96065.59;;;16.60;39.37
43711;BME280;29309;42.682;23.372;2022-10-16T15:10:38;96068.84;;;16.54;39.00